HEBL

Abu Simbel Airport

Abu Simbel, Egypt
METAR HEBL 210600Z 06003KT CAVOK 34/09 Q1008 NOSIG
Observed Flight Rules
May-21 @ 06:00 UTC (an hour ago) Visual Flight Rules
Wind Visibility Clouds
60° at 3 knots 10,000+ meters
  • Clear skies
Temperatures Readings
Current 34°C / 93°F
Dewpoint 9°C / 48°F
Humidity 21%
Altimeter 29.76" Hg
Pressure 1008 hPa
Elevation 188
METAR HEBL 210600Z 06003KT CAVOK 34/09 Q1008 NOSIG
Observed Flight Rules
May-21 @ 06:00 UTC
(an hour ago)
VFR
Wind Visibility
60° at 3 knots 10,000+ meters
Clouds
  • Clear skies
Temperature Dewpoint
34°C / 93°F 9°C / 48°F
Humidity Altimeter Pressure
21% 29.76" Hg 1008 hPa